createdAt,value
2018-03-14T00:00:56.924Z,19.07
2018-03-14T00:03:22.905Z,18.83
2018-03-14T00:05:48.770Z,18.63
2018-03-14T00:08:14.640Z,19.37
2018-03-14T00:10:40.552Z,16.50
2018-03-14T00:13:06.421Z,17.43
2018-03-14T00:15:32.285Z,16.97
2018-03-14T00:17:58.275Z,17.27
2018-03-14T00:20:24.153Z,18.33
2018-03-14T00:22:50.023Z,19.37
2018-03-14T00:25:15.915Z,20.63
2018-03-14T00:27:41.783Z,19.57
2018-03-14T00:30:07.646Z,19.20
2018-03-14T00:32:33.636Z,20.83
2018-03-14T00:34:59.496Z,21.73
2018-03-14T00:37:25.367Z,21.17
2018-03-14T00:39:51.289Z,21.47
2018-03-14T00:42:17.164Z,20.77
2018-03-14T00:44:43.055Z,19.30
2018-03-14T00:47:08.948Z,20.60
2018-03-14T00:49:34.844Z,22.13
2018-03-14T00:52:00.733Z,20.60
2018-03-14T00:54:26.661Z,21.03
2018-03-14T00:56:52.540Z,21.90
2018-03-14T00:59:18.404Z,20.17
2018-03-14T01:01:44.400Z,22.07
2018-03-14T01:04:10.253Z,21.10
2018-03-14T01:06:36.240Z,19.97
2018-03-14T01:09:02.198Z,20.23
2018-03-14T01:11:28.063Z,20.20
2018-03-14T01:13:53.928Z,19.37
2018-03-14T01:16:19.849Z,17.87
2018-03-14T01:18:45.713Z,18.03
2018-03-14T01:21:11.597Z,18.57
2018-03-14T01:23:37.526Z,17.97
2018-03-14T01:26:03.414Z,17.00
2018-03-14T01:28:29.304Z,16.90
2018-03-14T01:30:55.302Z,17.13
2018-03-14T01:33:21.229Z,15.57
2018-03-14T01:35:47.112Z,15.63
2018-03-14T01:38:13.018Z,15.07
2018-03-14T01:40:38.905Z,15.23
2018-03-14T01:43:04.779Z,14.03
2018-03-14T01:45:30.698Z,15.37
2018-03-14T01:47:56.574Z,14.87
2018-03-14T01:50:22.454Z,15.30
2018-03-14T01:52:48.466Z,15.27
2018-03-14T01:55:14.358Z,14.87
2018-03-14T01:57:40.229Z,14.03
2018-03-14T02:00:06.136Z,14.47
2018-03-14T04:08:49.333Z,12.10
2018-03-14T04:11:15.193Z,11.73
2018-03-14T04:13:41.028Z,12.27
2018-03-14T04:16:06.908Z,13.07
2018-03-14T04:18:32.760Z,12.73
2018-03-14T04:20:58.600Z,12.20
2018-03-14T04:23:24.520Z,12.73
2018-03-14T04:25:50.374Z,12.90
2018-03-14T04:28:16.216Z,11.57
2018-03-14T04:30:42.099Z,11.60
2018-03-14T04:33:07.936Z,12.43
2018-03-14T04:35:33.777Z,12.30
2018-03-14T04:37:59.656Z,11.47
2018-03-14T04:40:25.513Z,11.33
2018-03-14T04:42:51.356Z,11.83
2018-03-14T04:45:17.241Z,10.97
2018-03-14T04:47:43.084Z,12.20
2018-03-14T04:50:08.921Z,11.10
2018-03-14T04:52:34.885Z,10.93
2018-03-14T04:55:00.753Z,11.10
2018-03-14T04:57:26.604Z,10.43
2018-03-14T04:59:52.494Z,9.50
2018-03-14T05:02:18.363Z,8.83
2018-03-14T05:04:44.196Z,9.33
2018-03-14T05:07:10.093Z,8.77
2018-03-14T05:09:36.060Z,8.93
2018-03-14T05:12:01.915Z,8.17
2018-03-14T05:14:27.804Z,8.30
2018-03-14T05:16:53.643Z,8.00
2018-03-14T05:19:19.485Z,8.07
2018-03-14T05:21:45.364Z,7.63
2018-03-14T05:24:11.204Z,7.40
2018-03-14T05:26:37.045Z,7.30
2018-03-14T05:29:02.969Z,6.83
2018-03-14T05:31:28.824Z,6.50
2018-03-14T05:36:57.222Z,6.63
2018-03-14T05:39:23.098Z,6.20
2018-03-14T05:41:48.973Z,6.20
2018-03-14T05:44:14.861Z,5.80
2018-03-14T05:46:40.947Z,6.90
2018-03-14T05:49:06.795Z,6.07
2018-03-14T05:51:32.689Z,6.00
2018-03-14T05:53:58.550Z,6.57
2018-03-14T05:56:24.397Z,6.83
2018-03-14T05:58:50.302Z,6.23
2018-03-14T06:01:16.158Z,6.33
2018-03-14T06:03:42.010Z,6.27
2018-03-14T06:06:08.015Z,7.17
2018-03-14T06:08:34.445Z,5.70
2018-03-14T06:11:00.357Z,7.40
2018-03-14T06:13:26.253Z,6.80
2018-03-14T06:15:52.105Z,7.30
2018-03-14T06:18:17.969Z,6.97
2018-03-14T06:20:43.860Z,6.90
2018-03-14T06:23:09.706Z,7.47
2018-03-14T06:25:35.567Z,7.87
2018-03-14T06:28:01.492Z,8.37
2018-03-14T06:30:27.345Z,8.57
2018-03-14T06:32:53.196Z,8.87
2018-03-14T06:35:19.077Z,8.43
2018-03-14T06:37:45.020Z,9.27
2018-03-14T06:40:10.887Z,8.67
2018-03-14T06:42:36.774Z,9.43
2018-03-14T06:45:02.657Z,8.77
2018-03-14T06:47:28.608Z,9.17
2018-03-14T06:49:54.612Z,9.00
2018-03-14T06:52:20.706Z,8.73
2018-03-14T06:54:46.742Z,9.53
2018-03-14T06:57:13.802Z,8.83
2018-03-14T06:59:52.084Z,9.90
2018-03-14T07:02:42.130Z,9.47
2018-03-14T07:05:20.266Z,10.77
2018-03-14T07:07:46.193Z,9.60
2018-03-14T07:10:12.132Z,10.60
2018-03-14T07:12:38.985Z,10.63
2018-03-14T07:15:05.006Z,10.20
2018-03-14T07:17:30.867Z,9.67
2018-03-14T07:19:56.724Z,10.37
2018-03-14T07:22:22.605Z,11.47
2018-03-14T07:24:48.508Z,10.67
2018-03-14T07:27:14.440Z,11.07
2018-03-14T07:29:40.309Z,10.33
2018-03-14T07:32:06.197Z,11.23
2018-03-14T07:34:32.055Z,10.57
2018-03-14T07:36:58.145Z,11.00
2018-03-14T07:39:24.084Z,10.97
2018-03-14T07:41:49.936Z,9.77
2018-03-14T07:44:16.362Z,9.63
2018-03-14T07:46:42.226Z,9.60
2018-03-14T07:49:08.078Z,9.67
2018-03-14T07:51:33.993Z,9.33
2018-03-14T07:53:59.862Z,9.47
2018-03-14T07:56:25.731Z,9.80
2018-03-14T07:58:51.638Z,14.07
2018-03-14T08:01:17.505Z,10.87
2018-03-14T08:03:43.377Z,10.13
2018-03-14T08:06:09.289Z,9.63
2018-03-14T08:08:35.240Z,10.07
2018-03-14T08:11:01.119Z,10.07
2018-03-14T08:13:27.177Z,10.03
2018-03-14T08:15:52.980Z,9.43
2018-03-14T08:18:18.837Z,9.47
2018-03-14T08:20:45.132Z,9.50
2018-03-14T08:23:11.002Z,9.70
2018-03-14T08:25:36.952Z,9.40
2018-03-14T08:28:02.841Z,9.83
2018-03-14T08:30:28.705Z,10.13
2018-03-14T08:32:54.552Z,10.37
2018-03-14T08:35:20.444Z,9.80
2018-03-14T08:37:46.398Z,9.90
2018-03-14T08:40:12.254Z,11.07
2018-03-14T08:42:38.177Z,10.70
2018-03-14T08:45:04.045Z,10.97
2018-03-14T08:47:29.896Z,11.87
2018-03-14T08:49:55.882Z,12.07
2018-03-14T08:52:21.734Z,12.43
2018-03-14T08:54:47.610Z,11.63
2018-03-14T08:57:13.526Z,11.50
2018-03-14T08:59:39.386Z,12.23
2018-03-14T09:02:05.347Z,13.33
2018-03-14T09:04:31.261Z,12.70
2018-03-14T09:06:57.160Z,13.37
2018-03-14T09:09:23.021Z,14.13
2018-03-14T09:11:48.948Z,15.40
2018-03-14T09:14:14.901Z,14.50
2018-03-14T09:16:40.760Z,14.30
2018-03-14T09:19:06.653Z,14.47
2018-03-14T09:21:32.521Z,15.20
2018-03-14T09:23:58.388Z,14.63
2018-03-14T09:26:24.392Z,15.97
2018-03-14T09:28:50.240Z,15.43
2018-03-14T09:31:16.125Z,14.47
2018-03-14T09:33:42.024Z,15.90
2018-03-14T09:36:07.882Z,14.63
2018-03-14T09:38:33.828Z,15.47
2018-03-14T09:40:59.719Z,13.37
2018-03-14T09:43:25.585Z,14.17
2018-03-14T09:45:51.433Z,14.97
2018-03-14T09:48:17.441Z,13.13
2018-03-14T09:50:43.332Z,12.77
2018-03-14T09:53:09.196Z,12.50
2018-03-14T09:55:35.102Z,12.67
2018-03-14T09:58:00.972Z,12.37
2018-03-14T10:00:26.816Z,11.70
2018-03-14T10:02:52.753Z,10.93
2018-03-14T10:05:18.617Z,11.73
2018-03-14T10:07:44.469Z,12.40
2018-03-14T10:10:10.350Z,11.37
2018-03-14T10:12:36.225Z,11.70
2018-03-14T10:15:02.074Z,12.17
2018-03-14T10:17:27.987Z,11.90
2018-03-14T10:19:53.836Z,11.77
2018-03-14T10:22:19.700Z,14.10
2018-03-14T10:24:45.600Z,13.87
2018-03-14T10:27:11.453Z,12.17
2018-03-14T10:29:37.311Z,11.70
2018-03-14T10:32:03.269Z,10.57
2018-03-14T10:34:29.135Z,11.27
2018-03-14T10:36:54.982Z,11.33
2018-03-14T10:39:20.855Z,10.50
2018-03-14T10:41:46.706Z,10.17
2018-03-14T10:44:12.566Z,10.90
2018-03-14T10:46:38.449Z,9.60
2018-03-14T10:49:04.308Z,9.93
2018-03-14T10:51:30.165Z,10.70
2018-03-14T10:53:56.054Z,9.97
2018-03-14T10:56:21.933Z,10.27
2018-03-14T10:58:47.844Z,9.67
2018-03-14T11:01:13.745Z,9.37
2018-03-14T11:03:43.546Z,9.90
2018-03-14T11:06:09.425Z,10.73
2018-03-14T11:08:36.384Z,9.70
2018-03-14T11:11:02.254Z,9.83
2018-03-14T11:13:28.109Z,9.63
2018-03-14T11:15:54.115Z,9.00
2018-03-14T11:18:19.975Z,9.33
2018-03-14T11:20:45.833Z,9.30
2018-03-14T11:23:11.733Z,9.17
2018-03-14T11:25:37.671Z,9.27
2018-03-14T11:28:03.668Z,9.33
2018-03-14T11:30:29.860Z,10.70
2018-03-14T11:32:55.714Z,10.30
2018-03-14T11:35:21.578Z,10.20
2018-03-14T11:37:47.474Z,10.30
2018-03-14T11:40:13.439Z,14.97
2018-03-14T11:42:39.288Z,11.43
2018-03-14T11:45:05.203Z,11.10
2018-03-14T11:47:31.060Z,10.67
2018-03-14T11:49:56.904Z,13.67
2018-03-14T11:52:22.901Z,11.37
2018-03-14T11:54:48.773Z,10.83
2018-03-14T11:57:14.639Z,14.33
2018-03-14T11:59:40.571Z,11.53
2018-03-14T12:02:06.427Z,10.67
2018-03-14T12:04:32.382Z,11.63
2018-03-14T12:06:58.290Z,12.83
2018-03-14T12:09:24.162Z,12.67
2018-03-14T12:11:50.035Z,12.77
2018-03-14T12:14:15.940Z,12.43
2018-03-14T12:16:41.897Z,13.43
2018-03-14T12:19:07.750Z,13.53
2018-03-14T12:21:34.039Z,14.27
2018-03-14T12:23:59.905Z,14.13
2018-03-14T12:26:25.761Z,13.30
2018-03-14T12:28:51.750Z,13.80
2018-03-14T12:31:17.593Z,15.17
2018-03-14T12:33:43.460Z,14.63
2018-03-14T12:36:09.360Z,14.67
2018-03-14T12:38:35.236Z,15.50
2018-03-14T12:41:01.174Z,16.00
2018-03-14T12:43:27.168Z,15.33
2018-03-14T12:45:53.059Z,14.23
2018-03-14T12:48:18.900Z,13.37
2018-03-14T12:50:44.802Z,15.17
2018-03-14T12:53:10.754Z,14.60
2018-03-14T12:55:36.623Z,14.47
2018-03-14T12:58:02.540Z,15.93
2018-03-14T13:00:28.408Z,14.50
2018-03-14T13:02:54.274Z,14.40
2018-03-14T13:05:20.261Z,13.70
2018-03-14T13:07:46.116Z,14.80
2018-03-14T13:10:11.977Z,13.57
2018-03-14T13:12:37.878Z,14.47
2018-03-14T13:15:03.746Z,13.90
2018-03-14T13:17:29.680Z,14.13
2018-03-14T13:19:55.737Z,13.40
2018-03-14T13:22:21.592Z,14.27
2018-03-14T13:24:47.458Z,14.50
2018-03-14T13:27:13.352Z,15.23
2018-03-14T13:29:39.318Z,14.37
2018-03-14T13:32:05.165Z,15.20
2018-03-14T13:34:31.061Z,14.10
2018-03-14T13:36:56.934Z,13.67
2018-03-14T13:39:22.802Z,15.10
2018-03-14T13:41:48.793Z,14.80
2018-03-14T13:44:14.641Z,15.90
2018-03-14T13:46:40.506Z,15.07
2018-03-14T13:49:06.419Z,15.13
2018-03-14T13:51:32.278Z,14.47
2018-03-14T13:53:58.221Z,14.70
2018-03-14T13:56:24.449Z,15.03
2018-03-14T13:58:50.306Z,16.13
2018-03-14T14:01:16.165Z,16.23
2018-03-14T14:03:42.093Z,14.13
2018-03-14T14:06:08.042Z,15.63
2018-03-14T14:08:33.898Z,15.77
2018-03-14T14:10:59.809Z,15.80
2018-03-14T14:13:25.669Z,15.60
2018-03-14T14:15:51.517Z,14.17
2018-03-14T14:18:18.585Z,15.30
2018-03-14T14:20:44.462Z,14.90
2018-03-14T14:23:10.325Z,14.43
2018-03-14T14:25:36.221Z,15.83
2018-03-14T14:28:02.084Z,15.57
2018-03-14T14:30:28.093Z,14.70
2018-03-14T14:32:54.013Z,14.60
2018-03-14T14:35:19.874Z,14.00
2018-03-14T14:37:45.716Z,15.50
2018-03-14T14:40:11.616Z,15.00
2018-03-14T14:42:37.552Z,15.07
2018-03-14T14:45:03.423Z,13.50
2018-03-14T14:47:29.325Z,14.20
2018-03-14T14:49:55.190Z,13.97
2018-03-14T14:52:21.037Z,14.27
2018-03-14T14:54:47.032Z,14.17
2018-03-14T14:57:12.890Z,13.37
2018-03-14T14:59:38.748Z,12.83
2018-03-14T15:02:05.098Z,13.83
2018-03-14T15:04:30.987Z,12.10
2018-03-14T15:06:56.948Z,13.07
2018-03-14T15:09:22.862Z,12.30
2018-03-14T15:11:48.736Z,12.53
2018-03-14T15:14:14.591Z,11.13
2018-03-14T15:16:40.490Z,11.50
2018-03-14T15:19:06.422Z,10.73
2018-03-14T15:21:32.385Z,12.60
2018-03-14T15:23:58.218Z,11.23
2018-03-14T15:26:24.081Z,10.73
2018-03-14T15:28:49.928Z,11.00
2018-03-14T15:31:15.831Z,11.53
2018-03-14T15:33:41.685Z,10.40
2018-03-14T15:36:07.540Z,11.80
2018-03-14T15:38:33.441Z,10.30
2018-03-14T15:40:59.302Z,10.90
2018-03-14T15:43:25.155Z,10.13
2018-03-14T15:45:51.077Z,11.97
2018-03-14T15:48:16.955Z,10.40
2018-03-14T15:50:42.816Z,23.77
2018-03-14T15:53:08.714Z,33.83
2018-03-14T15:55:34.573Z,28.40
2018-03-14T15:58:00.442Z,20.80
2018-03-14T16:00:26.352Z,17.53
2018-03-14T16:02:52.256Z,11.70
2018-03-14T16:05:18.072Z,11.97
2018-03-14T16:07:43.973Z,10.30
2018-03-14T16:10:09.889Z,10.40
2018-03-14T16:12:35.803Z,9.63
2018-03-14T16:15:01.709Z,9.03
2018-03-14T16:17:27.640Z,10.23
2018-03-14T16:19:53.498Z,9.60
2018-03-14T16:22:19.414Z,9.27
2018-03-14T16:24:45.279Z,9.07
2018-03-14T16:27:11.253Z,9.90
2018-03-14T16:29:37.270Z,10.00
2018-03-14T16:32:03.143Z,9.63
2018-03-14T16:34:29.034Z,9.77
2018-03-14T16:36:54.933Z,9.43
2018-03-14T16:39:20.833Z,9.87
2018-03-14T16:41:46.698Z,10.03
2018-03-14T16:44:12.597Z,9.57
2018-03-14T16:46:38.444Z,9.13
2018-03-14T16:49:04.298Z,9.83
2018-03-14T16:51:30.213Z,10.63
2018-03-14T16:53:56.060Z,9.83
2018-03-14T16:56:21.917Z,9.47
2018-03-14T16:58:47.890Z,9.00
2018-03-14T17:01:13.770Z,9.27
2018-03-14T17:03:39.650Z,9.47
2018-03-14T17:06:05.678Z,9.47
2018-03-14T17:08:31.537Z,9.10
2018-03-14T17:10:57.456Z,9.67
2018-03-14T17:13:23.357Z,9.57
2018-03-14T17:15:49.229Z,8.97
2018-03-14T17:18:15.105Z,9.33
2018-03-14T17:20:40.996Z,9.53
2018-03-14T17:23:06.849Z,11.23
2018-03-14T17:25:33.128Z,11.53
2018-03-14T17:27:59.108Z,11.00
2018-03-14T17:30:24.969Z,11.53
2018-03-14T17:32:50.825Z,11.30
2018-03-14T17:35:16.825Z,12.10
2018-03-14T17:37:42.686Z,10.87
2018-03-14T17:40:08.546Z,11.47
2018-03-14T17:42:34.450Z,11.20
2018-03-14T17:45:00.308Z,10.50
2018-03-14T17:47:26.157Z,11.03
2018-03-14T17:49:52.041Z,10.30
2018-03-14T17:52:17.889Z,10.67
2018-03-14T17:54:43.736Z,10.60
2018-03-14T17:57:09.682Z,11.43
2018-03-14T17:59:35.516Z,12.23
2018-03-14T18:02:01.372Z,13.33
2018-03-14T18:04:27.344Z,12.20
2018-03-14T18:06:53.206Z,11.03
2018-03-14T18:09:19.675Z,11.57
2018-03-14T18:11:45.681Z,11.97
2018-03-14T18:14:11.544Z,12.57
2018-03-14T18:16:37.394Z,12.20
2018-03-14T18:19:03.304Z,13.60
2018-03-14T18:21:29.153Z,11.63
2018-03-14T18:23:55.000Z,11.97
2018-03-14T18:26:20.905Z,10.77
2018-03-14T18:28:46.756Z,12.63
2018-03-14T18:31:12.620Z,12.23
2018-03-14T18:33:38.508Z,11.63
2018-03-14T18:36:04.370Z,11.70
2018-03-14T18:38:30.244Z,12.53
2018-03-14T18:40:56.147Z,11.77
2018-03-14T18:43:22.014Z,11.60
2018-03-14T18:45:47.873Z,13.40
2018-03-14T18:48:13.780Z,12.27
2018-03-14T18:50:39.625Z,12.67
2018-03-14T18:53:05.479Z,13.37
2018-03-14T18:55:31.384Z,12.40
2018-03-14T18:57:57.236Z,13.20
2018-03-14T19:00:23.103Z,14.30
2018-03-14T19:02:49.005Z,12.83
2018-03-14T19:05:14.876Z,13.23
2018-03-14T19:07:40.742Z,13.23
2018-03-14T19:10:06.649Z,13.87
2018-03-14T19:12:32.552Z,15.07
2018-03-14T19:14:58.426Z,13.60
2018-03-14T19:17:24.339Z,14.40
2018-03-14T19:19:50.207Z,15.40
2018-03-14T19:22:16.069Z,16.40
2018-03-14T19:24:41.969Z,15.87
2018-03-14T19:27:07.833Z,17.17
2018-03-14T19:29:33.682Z,16.10
2018-03-14T19:31:59.595Z,15.40
2018-03-14T19:34:25.553Z,17.33
2018-03-14T19:36:51.408Z,15.37
2018-03-14T19:39:17.305Z,15.07
2018-03-14T19:41:43.163Z,16.37
2018-03-14T19:44:09.029Z,15.87
2018-03-14T19:46:34.981Z,15.30
2018-03-14T19:49:00.854Z,16.47
2018-03-14T19:51:26.772Z,14.63
2018-03-14T19:53:52.652Z,14.97
2018-03-14T19:56:18.563Z,15.77
2018-03-14T19:58:44.384Z,14.60
2018-03-14T20:01:10.293Z,14.37
2018-03-14T20:03:36.144Z,16.07
2018-03-14T20:06:02.005Z,15.63
2018-03-14T20:08:27.907Z,15.53
2018-03-14T20:10:53.837Z,15.43
2018-03-14T20:13:19.749Z,14.53
2018-03-14T20:15:45.657Z,14.27
2018-03-14T20:18:11.526Z,14.17
2018-03-14T20:20:37.410Z,14.67
2018-03-14T20:23:03.320Z,13.63
2018-03-14T20:25:29.238Z,14.07
2018-03-14T20:27:55.097Z,14.63
2018-03-14T20:30:20.978Z,13.47
2018-03-14T20:32:46.838Z,13.80
2018-03-14T20:35:12.732Z,13.23
2018-03-14T20:37:38.622Z,13.63
2018-03-14T20:40:04.493Z,13.43
2018-03-14T20:42:30.347Z,13.70
2018-03-14T20:44:56.242Z,13.57
2018-03-14T20:47:22.098Z,14.73
2018-03-14T20:49:47.953Z,14.70
2018-03-14T20:52:13.853Z,14.10
2018-03-14T20:54:39.810Z,14.33
2018-03-14T20:57:05.671Z,13.70
2018-03-14T20:59:31.540Z,14.50
2018-03-14T21:01:57.394Z,13.57
2018-03-14T21:04:23.256Z,13.20
2018-03-14T21:06:49.137Z,13.13
2018-03-14T21:09:14.982Z,13.40
2018-03-14T21:11:40.843Z,13.77
2018-03-14T21:14:06.775Z,13.30
2018-03-14T21:16:32.628Z,13.73
2018-03-14T21:18:58.508Z,14.40
2018-03-14T21:21:24.794Z,12.43
2018-03-14T21:23:50.661Z,13.73
2018-03-14T21:26:16.522Z,13.53
2018-03-14T21:28:42.477Z,13.90
2018-03-14T21:31:08.381Z,14.37
2018-03-14T21:33:34.208Z,13.43
2018-03-14T21:36:00.084Z,15.60
2018-03-14T21:38:25.996Z,14.73
2018-03-14T21:40:51.804Z,14.13
2018-03-14T21:43:17.685Z,15.33
2018-03-14T21:45:43.559Z,13.97
2018-03-14T21:48:09.425Z,15.43
2018-03-14T21:50:35.334Z,14.80
2018-03-14T21:53:01.275Z,15.47
2018-03-14T21:55:37.268Z,14.67
2018-03-14T21:58:03.129Z,14.67
2018-03-14T22:00:29.011Z,14.70
2018-03-14T22:02:54.896Z,15.13
2018-03-14T22:05:20.761Z,15.37
2018-03-14T22:07:46.627Z,14.67
2018-03-14T22:10:12.519Z,15.97
2018-03-14T22:12:38.389Z,14.70
2018-03-14T22:15:04.268Z,16.73
2018-03-14T22:17:30.157Z,16.10
2018-03-14T22:19:56.074Z,16.20
2018-03-14T22:22:21.999Z,16.00
2018-03-14T22:24:47.902Z,15.73
2018-03-14T22:27:13.777Z,16.63
2018-03-14T22:29:39.634Z,16.57
2018-03-14T22:32:05.529Z,16.00
2018-03-14T22:34:31.409Z,15.23
2018-03-14T22:36:57.286Z,16.73
2018-03-14T22:39:23.188Z,15.70
2018-03-14T22:41:49.045Z,15.50
2018-03-14T22:44:14.898Z,15.07
2018-03-14T22:46:40.785Z,15.17
2018-03-14T22:49:06.646Z,17.90
2018-03-14T22:51:32.569Z,17.37
2018-03-14T22:53:58.458Z,16.87
2018-03-14T22:56:24.333Z,17.00
2018-03-14T22:58:50.188Z,16.93
2018-03-14T23:01:16.110Z,15.50
2018-03-14T23:03:41.974Z,17.13
2018-03-14T23:06:07.838Z,17.00
2018-03-14T23:08:33.732Z,18.00
2018-03-14T23:10:59.600Z,17.43
2018-03-14T23:13:25.454Z,16.53
2018-03-14T23:15:51.336Z,16.80
2018-03-14T23:18:17.193Z,17.17
2018-03-14T23:20:43.097Z,17.90
2018-03-14T23:23:08.982Z,16.20
2018-03-14T23:25:34.833Z,16.43
2018-03-14T23:28:00.715Z,17.40
2018-03-14T23:30:26.600Z,18.07
2018-03-14T23:32:52.477Z,17.33
2018-03-14T23:35:18.345Z,18.47
2018-03-14T23:37:44.242Z,19.57
2018-03-14T23:40:10.105Z,17.97
2018-03-14T23:42:35.958Z,19.43
2018-03-14T23:45:01.840Z,17.33
2018-03-14T23:47:27.753Z,17.37
2018-03-14T23:49:53.604Z,17.40
2018-03-14T23:52:19.506Z,16.47
2018-03-14T23:54:45.368Z,16.97
2018-03-14T23:57:11.330Z,17.63
2018-03-14T23:59:37.238Z,18.10
